AAL1017 KLAX-KCLT
Flight info
| Callsign | AAL1017 |
|---|---|
| Flight time | N/A |
| Altitude | 33000 |
| Route | DOTSS2 CLEEE PKE J96 KEYKE INW FLYBY KA36Y TUL/N0454F350 RZC Q36 DEPEC TAZZA FILPZ4 |
| Aircraft | A321/M-SDE3FGHIRWY/LB1 |
Departure
| Time | 2026-04-20 21:00 |
|---|---|
| Airport | Los Angeles International Airport (KLAX) |
Arrival
| Time | N/A |
|---|---|
| Airport | Charlotte Douglas International Airport (KCLT) |
| Time | Latitude | Longitude | Altitude | Speed | Heading |
|---|---|---|---|---|---|
| 2026-04-20 20:30 | 33.94108 | -118.40736 | 93 ft | 0 kts | 69° |
| 2026-04-20 20:40 | 33.94108 | -118.40737 | 93 ft | 0 kts | 69° |
| 2026-04-20 20:47 | 33.94107 | -118.40739 | 93 ft | 2 kts | 68° |
| 2026-04-20 20:48 | 33.94101 | -118.40756 | 92 ft | 2 kts | 68° |
| 2026-04-20 20:48 | 33.94095 | -118.40774 | 92 ft | 2 kts | 68° |
| 2026-04-20 20:48 | 33.94090 | -118.40791 | 91 ft | 2 kts | 88° |
| 2026-04-20 20:48 | 33.94091 | -118.40810 | 91 ft | 2 kts | 123° |
| 2026-04-20 20:49 | 33.94102 | -118.40824 | 93 ft | 2 kts | 158° |
| 2026-04-20 20:49 | 33.94105 | -118.40826 | 92 ft | 0 kts | 159° |
| 2026-04-20 20:52 | 33.94098 | -118.40825 | 92 ft | 4 kts | 172° |
| 2026-04-20 20:52 | 33.94065 | -118.40823 | 92 ft | 5 kts | 178° |
| 2026-04-20 20:53 | 33.94028 | -118.40823 | 93 ft | 6 kts | 178° |
| 2026-04-20 20:53 | 33.93981 | -118.40818 | 93 ft | 7 kts | 173° |
| 2026-04-20 20:53 | 33.93929 | -118.40810 | 93 ft | 8 kts | 171° |
| 2026-04-20 20:53 | 33.93878 | -118.40768 | 94 ft | 9 kts | 136° |
| 2026-04-20 20:54 | 33.93830 | -118.40723 | 95 ft | 9 kts | 131° |
| 2026-04-20 20:54 | 33.93814 | -118.40642 | 94 ft | 13 kts | 86° |
| 2026-04-20 20:54 | 33.93825 | -118.40530 | 97 ft | 14 kts | 83° |
| 2026-04-20 20:54 | 33.93837 | -118.40405 | 95 ft | 16 kts | 83° |
| 2026-04-20 20:55 | 33.93850 | -118.40276 | 96 ft | 16 kts | 83° |
| 2026-04-20 20:55 | 33.93864 | -118.40142 | 99 ft | 16 kts | 82° |
| 2026-04-20 20:55 | 33.93878 | -118.40010 | 96 ft | 16 kts | 83° |
| 2026-04-20 20:55 | 33.93891 | -118.39874 | 96 ft | 17 kts | 84° |
| 2026-04-20 20:56 | 33.93906 | -118.39730 | 95 ft | 19 kts | 83° |
| 2026-04-20 20:56 | 33.93922 | -118.39571 | 95 ft | 19 kts | 82° |
| 2026-04-20 20:56 | 33.93939 | -118.39409 | 97 ft | 20 kts | 83° |
| 2026-04-20 20:56 | 33.93956 | -118.39243 | 95 ft | 20 kts | 83° |
| 2026-04-20 20:57 | 33.93973 | -118.39076 | 94 ft | 20 kts | 83° |
| 2026-04-20 20:57 | 33.93990 | -118.38913 | 94 ft | 20 kts | 83° |
| 2026-04-20 20:57 | 33.94006 | -118.38750 | 94 ft | 19 kts | 83° |
| 2026-04-20 20:57 | 33.94022 | -118.38590 | 95 ft | 19 kts | 83° |
| 2026-04-20 20:58 | 33.94038 | -118.38437 | 97 ft | 18 kts | 83° |
| 2026-04-20 20:58 | 33.94054 | -118.38284 | 97 ft | 18 kts | 83° |
| 2026-04-20 20:58 | 33.94070 | -118.38136 | 94 ft | 11 kts | 82° |
| 2026-04-20 20:58 | 33.94076 | -118.38064 | 93 ft | 7 kts | 89° |
| 2026-04-20 20:59 | 33.94051 | -118.38015 | 94 ft | 7 kts | 143° |
| 2026-04-20 20:59 | 33.94004 | -118.38006 | 94 ft | 7 kts | 197° |
| 2026-04-20 20:59 | 33.93981 | -118.38048 | 95 ft | 6 kts | 259° |
| 2026-04-20 20:59 | 33.93974 | -118.38102 | 94 ft | 10 kts | 263° |
| 2026-04-20 21:00 | 33.93943 | -118.38421 | 99 ft | 71 kts | 263° |
| 2026-04-20 21:00 | 33.93858 | -118.39253 | 95 ft | 128 kts | 263° |
| 2026-04-20 21:00 | 33.93730 | -118.40497 | 177 ft | 165 kts | 263° |
| 2026-04-20 21:00 | 33.93592 | -118.41853 | 801 ft | 162 kts | 261° |
| 2026-04-20 21:01 | 33.93418 | -118.43213 | 1310 ft | 176 kts | 258° |
| 2026-04-20 21:01 | 33.93151 | -118.44762 | 1692 ft | 201 kts | 255° |
| 2026-04-20 21:01 | 33.92644 | -118.46424 | 1913 ft | 223 kts | 238° |
| 2026-04-20 21:01 | 33.91704 | -118.48026 | 2166 ft | 244 kts | 232° |
| 2026-04-20 21:02 | 33.90644 | -118.49688 | 2597 ft | 255 kts | 231° |
| 2026-04-20 21:02 | 33.89505 | -118.51362 | 3111 ft | 261 kts | 229° |
| 2026-04-20 21:02 | 33.88320 | -118.53047 | 3700 ft | 265 kts | 228° |
| 2026-04-20 21:02 | 33.86998 | -118.54595 | 4325 ft | 267 kts | 212° |
| 2026-04-20 21:03 | 33.85325 | -118.55535 | 4943 ft | 266 kts | 193° |
| 2026-04-20 21:03 | 33.83495 | -118.55743 | 5583 ft | 266 kts | 174° |
| 2026-04-20 21:03 | 33.81673 | -118.55322 | 6222 ft | 267 kts | 167° |
| 2026-04-20 21:03 | 33.79885 | -118.54835 | 6842 ft | 268 kts | 168° |
| 2026-04-20 21:04 | 33.78068 | -118.54341 | 7483 ft | 268 kts | 168° |
| 2026-04-20 21:04 | 33.76239 | -118.53843 | 8050 ft | 271 kts | 168° |
| 2026-04-20 21:04 | 33.74387 | -118.53341 | 8616 ft | 274 kts | 168° |
| 2026-04-20 21:04 | 33.72526 | -118.52815 | 9222 ft | 276 kts | 163° |
| 2026-04-20 21:05 | 33.70789 | -118.51799 | 9755 ft | 282 kts | 145° |
| 2026-04-20 21:05 | 33.69385 | -118.50130 | 10260 ft | 290 kts | 128° |
| 2026-04-20 21:05 | 33.68439 | -118.47898 | 10402 ft | 312 kts | 112° |
| 2026-04-20 21:05 | 33.67704 | -118.45367 | 10533 ft | 330 kts | 112° |
| 2026-04-20 21:06 | 33.66936 | -118.42738 | 10645 ft | 347 kts | 112° |
| 2026-04-20 21:06 | 33.66115 | -118.39941 | 10764 ft | 363 kts | 112° |
| 2026-04-20 21:06 | 33.65256 | -118.37030 | 10992 ft | 375 kts | 112° |
| 2026-04-20 21:06 | 33.64584 | -118.33982 | 11412 ft | 382 kts | 101° |
| 2026-04-20 21:07 | 33.64449 | -118.30770 | 11861 ft | 389 kts | 92° |
| 2026-04-20 21:07 | 33.64463 | -118.27512 | 12351 ft | 392 kts | 92° |
| 2026-04-20 21:07 | 33.64470 | -118.24228 | 12831 ft | 396 kts | 92° |
| 2026-04-20 21:07 | 33.64471 | -118.20905 | 13308 ft | 400 kts | 93° |
| 2026-04-20 21:08 | 33.64468 | -118.17559 | 13790 ft | 403 kts | 93° |
| 2026-04-20 21:08 | 33.64466 | -118.14177 | 14226 ft | 407 kts | 93° |
| 2026-04-20 21:08 | 33.64463 | -118.10813 | 14661 ft | 410 kts | 93° |
| 2026-04-20 21:08 | 33.64458 | -118.07377 | 15106 ft | 413 kts | 93° |
| 2026-04-20 21:09 | 33.64455 | -118.03914 | 15536 ft | 417 kts | 93° |
| 2026-04-20 21:09 | 33.64452 | -118.00423 | 15979 ft | 420 kts | 93° |
| 2026-04-20 21:09 | 33.64447 | -117.96909 | 16435 ft | 423 kts | 93° |
| 2026-04-20 21:09 | 33.64440 | -117.93359 | 16870 ft | 427 kts | 93° |
| 2026-04-20 21:10 | 33.64433 | -117.89793 | 17320 ft | 429 kts | 93° |
| 2026-04-20 21:10 | 33.64426 | -117.86198 | 17751 ft | 432 kts | 93° |
| 2026-04-20 21:10 | 33.64420 | -117.82629 | 18168 ft | 435 kts | 93° |
| 2026-04-20 21:10 | 33.64585 | -117.78985 | 18522 ft | 441 kts | 85° |
| 2026-04-20 21:11 | 33.65206 | -117.75354 | 18866 ft | 446 kts | 79° |
| 2026-04-20 21:11 | 33.65913 | -117.71725 | 19221 ft | 448 kts | 79° |
| 2026-04-20 21:11 | 33.66623 | -117.68075 | 19584 ft | 450 kts | 79° |
| 2026-04-20 21:11 | 33.67335 | -117.64410 | 19937 ft | 452 kts | 79° |
| 2026-04-20 21:12 | 33.68047 | -117.60725 | 20296 ft | 454 kts | 79° |
| 2026-04-20 21:12 | 33.68757 | -117.57020 | 20654 ft | 456 kts | 79° |
| 2026-04-20 21:12 | 33.69457 | -117.53352 | 20994 ft | 458 kts | 79° |
| 2026-04-20 21:12 | 33.70167 | -117.49614 | 21345 ft | 460 kts | 79° |
| 2026-04-20 21:13 | 33.70880 | -117.45858 | 21666 ft | 462 kts | 79° |
| 2026-04-20 21:13 | 33.71598 | -117.42083 | 21976 ft | 465 kts | 79° |
| 2026-04-20 21:13 | 33.72317 | -117.38294 | 22315 ft | 466 kts | 79° |
| 2026-04-20 21:13 | 33.73037 | -117.34488 | 22625 ft | 468 kts | 79° |
| 2026-04-20 21:14 | 33.73759 | -117.30665 | 22946 ft | 470 kts | 79° |
| 2026-04-20 21:14 | 33.74484 | -117.26825 | 23257 ft | 472 kts | 79° |
| 2026-04-20 21:14 | 33.75005 | -117.22939 | 23563 ft | 472 kts | 88° |
| 2026-04-20 21:14 | 33.75059 | -117.19004 | 23814 ft | 471 kts | 94° |
| 2026-04-20 21:15 | 33.74972 | -117.15114 | 24084 ft | 473 kts | 94° |
| 2026-04-20 21:15 | 33.74883 | -117.11158 | 24347 ft | 474 kts | 94° |
| 2026-04-20 21:15 | 33.74799 | -117.07188 | 24608 ft | 476 kts | 94° |
| 2026-04-20 21:15 | 33.74720 | -117.03206 | 24859 ft | 477 kts | 94° |
| 2026-04-20 21:16 | 33.74643 | -116.99212 | 25107 ft | 479 kts | 94° |
| 2026-04-20 21:16 | 33.74563 | -116.95207 | 25356 ft | 481 kts | 94° |
| 2026-04-20 21:16 | 33.74478 | -116.91187 | 25586 ft | 482 kts | 94° |
| 2026-04-20 21:16 | 33.74386 | -116.87154 | 25821 ft | 484 kts | 94° |
| 2026-04-20 21:17 | 33.74293 | -116.83110 | 26060 ft | 485 kts | 94° |
| 2026-04-20 21:17 | 33.74198 | -116.79110 | 26334 ft | 486 kts | 94° |
| 2026-04-20 21:17 | 33.74101 | -116.75061 | 26705 ft | 484 kts | 94° |
| 2026-04-20 21:17 | 33.74006 | -116.71023 | 27064 ft | 483 kts | 94° |
| 2026-04-20 21:18 | 33.73912 | -116.67000 | 27415 ft | 482 kts | 94° |
| 2026-04-20 21:18 | 33.73818 | -116.62980 | 27790 ft | 481 kts | 94° |
| 2026-04-20 21:18 | 33.73723 | -116.58970 | 28143 ft | 480 kts | 94° |
| 2026-04-20 21:18 | 33.73624 | -116.54969 | 28437 ft | 479 kts | 94° |
| 2026-04-20 21:19 | 33.73524 | -116.50972 | 28773 ft | 478 kts | 94° |
| 2026-04-20 21:19 | 33.73423 | -116.47040 | 29105 ft | 477 kts | 94° |
| 2026-04-20 21:19 | 33.73318 | -116.43065 | 29445 ft | 476 kts | 94° |
| 2026-04-20 21:20 | 33.73109 | -116.35127 | 30092 ft | 475 kts | 95° |
| 2026-04-20 21:20 | 33.73006 | -116.31167 | 30361 ft | 474 kts | 94° |
| 2026-04-20 21:20 | 33.72937 | -116.28546 | 30522 ft | 474 kts | 94° |
| 2026-04-20 21:20 | 33.72796 | -116.23248 | 30825 ft | 474 kts | 95° |
| 2026-04-20 21:21 | 33.72685 | -116.19288 | 31055 ft | 474 kts | 95° |
| 2026-04-20 21:21 | 33.72574 | -116.15385 | 31294 ft | 474 kts | 95° |
| 2026-04-20 21:21 | 33.72468 | -116.11424 | 31539 ft | 475 kts | 92° |
| 2026-04-20 21:21 | 33.72679 | -116.07454 | 31768 ft | 478 kts | 83° |
| 2026-04-20 21:22 | 33.73396 | -116.03556 | 31993 ft | 480 kts | 74° |
| 2026-04-20 21:22 | 33.74457 | -115.99747 | 32211 ft | 481 kts | 73° |
| 2026-04-20 21:22 | 33.75525 | -115.95940 | 32441 ft | 481 kts | 73° |
| 2026-04-20 21:22 | 33.76585 | -115.92138 | 32689 ft | 480 kts | 73° |
| 2026-04-20 21:23 | 33.77640 | -115.88336 | 32900 ft | 480 kts | 73° |
| 2026-04-20 21:23 | 33.79728 | -115.80749 | 32978 ft | 482 kts | 73° |
| 2026-04-20 21:24 | 33.81833 | -115.73092 | 32975 ft | 482 kts | 73° |
| 2026-04-20 21:24 | 33.83940 | -115.65432 | 32975 ft | 482 kts | 73° |
| 2026-04-20 21:25 | 33.86043 | -115.57794 | 32967 ft | 480 kts | 73° |
| 2026-04-20 21:25 | 33.88133 | -115.50171 | 32962 ft | 480 kts | 73° |
| 2026-04-20 21:26 | 33.90193 | -115.42592 | 32965 ft | 480 kts | 73° |
| 2026-04-20 21:26 | 33.92264 | -115.34956 | 32959 ft | 480 kts | 73° |
| 2026-04-20 21:27 | 33.94336 | -115.27323 | 32954 ft | 480 kts | 73° |
| 2026-04-20 21:27 | 33.96414 | -115.19680 | 32951 ft | 480 kts | 73° |
| 2026-04-20 21:28 | 33.98471 | -115.12089 | 32951 ft | 480 kts | 73° |
| 2026-04-20 21:28 | 34.00532 | -115.04442 | 32949 ft | 480 kts | 73° |
| 2026-04-20 21:29 | 34.02578 | -114.96789 | 32945 ft | 480 kts | 73° |
| 2026-04-20 21:29 | 34.04625 | -114.89138 | 32947 ft | 480 kts | 73° |
| 2026-04-20 21:30 | 34.06672 | -114.81483 | 32941 ft | 480 kts | 73° |
| 2026-04-20 21:30 | 34.08701 | -114.73870 | 32939 ft | 480 kts | 73° |
| 2026-04-20 21:31 | 34.10740 | -114.66211 | 32939 ft | 480 kts | 73° |
| 2026-04-20 21:31 | 34.12873 | -114.58578 | 32933 ft | 480 kts | 72° |
| 2026-04-20 21:32 | 34.15066 | -114.50970 | 32935 ft | 480 kts | 72° |
| 2026-04-20 21:32 | 34.17224 | -114.43404 | 32936 ft | 480 kts | 72° |
| 2026-04-20 21:33 | 34.19366 | -114.35771 | 32932 ft | 480 kts | 72° |
| 2026-04-20 21:33 | 34.21490 | -114.28139 | 32934 ft | 479 kts | 72° |
| 2026-04-20 21:34 | 34.23613 | -114.20508 | 32931 ft | 479 kts | 72° |
| 2026-04-20 21:34 | 34.25725 | -114.12935 | 32936 ft | 479 kts | 72° |
| 2026-04-20 21:35 | 34.27845 | -114.05311 | 32931 ft | 478 kts | 71° |
| 2026-04-20 21:35 | 34.29957 | -113.97680 | 32933 ft | 478 kts | 71° |
| 2026-04-20 21:36 | 34.32063 | -113.90047 | 32938 ft | 479 kts | 71° |
| 2026-04-20 21:36 | 34.34155 | -113.82455 | 32933 ft | 479 kts | 71° |
| 2026-04-20 21:37 | 34.36267 | -113.74815 | 32933 ft | 479 kts | 71° |
| 2026-04-20 21:37 | 34.38362 | -113.67163 | 32936 ft | 479 kts | 71° |
| 2026-04-20 21:38 | 34.40448 | -113.59512 | 32939 ft | 479 kts | 71° |
| 2026-04-20 21:38 | 34.42517 | -113.51913 | 32942 ft | 478 kts | 71° |
| 2026-04-20 21:39 | 34.44593 | -113.44255 | 32944 ft | 478 kts | 71° |
| 2026-04-20 21:39 | 34.46671 | -113.36605 | 32957 ft | 477 kts | 71° |
| 2026-04-20 21:40 | 34.48395 | -113.30264 | 32962 ft | 476 kts | 70° |
| 2026-04-20 21:40 | 34.50448 | -113.22638 | 32968 ft | 476 kts | 71° |
| 2026-04-20 21:41 | 34.52825 | -113.13787 | 32969 ft | 475 kts | 71° |
| 2026-04-20 21:41 | 34.54867 | -113.06173 | 32980 ft | 474 kts | 70° |
| 2026-04-20 21:42 | 34.56554 | -112.99846 | 32977 ft | 474 kts | 70° |
| 2026-04-20 21:42 | 34.58575 | -112.92240 | 32982 ft | 473 kts | 71° |
| 2026-04-20 21:43 | 34.60928 | -112.83407 | 32984 ft | 473 kts | 70° |
| 2026-04-20 21:43 | 34.62622 | -112.77044 | 32993 ft | 473 kts | 70° |
| 2026-04-20 21:44 | 34.64616 | -112.69506 | 32990 ft | 472 kts | 70° |
| 2026-04-20 21:44 | 34.66612 | -112.61923 | 32987 ft | 471 kts | 70° |
| 2026-04-20 21:45 | 34.68605 | -112.54353 | 32979 ft | 470 kts | 71° |
| 2026-04-20 21:45 | 34.70582 | -112.46779 | 33184 ft | 470 kts | 71° |
| 2026-04-20 21:46 | 34.72387 | -112.39202 | 33194 ft | 469 kts | 72° |
| 2026-04-20 21:46 | 34.74089 | -112.31549 | 33166 ft | 468 kts | 73° |
| 2026-04-20 21:47 | 34.75795 | -112.23920 | 33114 ft | 467 kts | 72° |
| 2026-04-20 21:47 | 34.77536 | -112.16305 | 33066 ft | 467 kts | 72° |
| 2026-04-20 21:48 | 34.79281 | -112.08703 | 33062 ft | 466 kts | 72° |
| 2026-04-20 21:48 | 34.80999 | -112.01165 | 33103 ft | 465 kts | 72° |
| 2026-04-20 21:49 | 34.82718 | -111.93584 | 33136 ft | 464 kts | 72° |
| 2026-04-20 21:49 | 34.84431 | -111.86003 | 33154 ft | 464 kts | 72° |
| 2026-04-20 21:50 | 34.86134 | -111.78424 | 33172 ft | 464 kts | 72° |
| 2026-04-20 21:50 | 34.87819 | -111.70903 | 33165 ft | 463 kts | 72° |
| 2026-04-20 21:51 | 34.89515 | -111.63338 | 33133 ft | 463 kts | 72° |
| 2026-04-20 21:51 | 34.91205 | -111.55781 | 33018 ft | 462 kts | 72° |
| 2026-04-20 21:52 | 34.92873 | -111.48274 | 33025 ft | 462 kts | 72° |
| 2026-04-20 21:52 | 34.94546 | -111.40708 | 33023 ft | 462 kts | 72° |
| 2026-04-20 21:53 | 34.96146 | -111.33120 | 33023 ft | 463 kts | 73° |
| 2026-04-20 21:53 | 34.97572 | -111.25467 | 33018 ft | 463 kts | 75° |
| 2026-04-20 21:54 | 34.98964 | -111.17796 | 33021 ft | 463 kts | 74° |
| 2026-04-20 21:54 | 35.00384 | -111.10191 | 33047 ft | 462 kts | 73° |
| 2026-04-20 21:55 | 35.01835 | -111.02566 | 33082 ft | 461 kts | 73° |
| 2026-04-20 21:55 | 35.03280 | -110.94955 | 33105 ft | 460 kts | 73° |
| 2026-04-20 21:56 | 35.04708 | -110.87350 | 33131 ft | 460 kts | 74° |
| 2026-04-20 21:56 | 35.06109 | -110.79792 | 33169 ft | 459 kts | 74° |
| 2026-04-20 21:57 | 35.07337 | -110.72139 | 33168 ft | 460 kts | 77° |
| 2026-04-20 21:57 | 35.08394 | -110.64449 | 33161 ft | 459 kts | 77° |
| 2026-04-20 21:57 | 35.08918 | -110.60606 | 32944 ft | 459 kts | 77° |
| 2026-04-20 21:58 | 35.09452 | -110.56770 | 32943 ft | 458 kts | 77° |
| 2026-04-20 21:58 | 35.10551 | -110.49112 | 32950 ft | 458 kts | 76° |
| 2026-04-20 21:59 | 35.11661 | -110.41511 | 32947 ft | 458 kts | 77° |
| 2026-04-20 21:59 | 35.12766 | -110.33849 | 32941 ft | 458 kts | 77° |
| 2026-04-20 22:00 | 35.13854 | -110.26172 | 32929 ft | 459 kts | 77° |
| 2026-04-20 22:00 | 35.14925 | -110.18545 | 32917 ft | 459 kts | 77° |
| 2026-04-20 22:01 | 35.16001 | -110.10865 | 32933 ft | 459 kts | 77° |
| 2026-04-20 22:01 | 35.17078 | -110.03178 | 32918 ft | 459 kts | 78° |
| 2026-04-20 22:02 | 35.18148 | -109.95485 | 32915 ft | 459 kts | 78° |
| 2026-04-20 22:02 | 35.19210 | -109.87789 | 32902 ft | 459 kts | 78° |
| 2026-04-20 22:03 | 35.20266 | -109.80148 | 32903 ft | 459 kts | 78° |
| 2026-04-20 22:03 | 35.21326 | -109.72450 | 32899 ft | 459 kts | 78° |
| 2026-04-20 22:04 | 35.22382 | -109.64748 | 32895 ft | 459 kts | 78° |
| 2026-04-20 22:04 | 35.23427 | -109.57049 | 32896 ft | 459 kts | 78° |
| 2026-04-20 22:05 | 35.24461 | -109.49396 | 32890 ft | 459 kts | 78° |
| 2026-04-20 22:05 | 35.25497 | -109.41688 | 32895 ft | 459 kts | 78° |
| 2026-04-20 22:06 | 35.26532 | -109.33981 | 32896 ft | 459 kts | 78° |
| 2026-04-20 22:06 | 35.27558 | -109.26281 | 32895 ft | 458 kts | 79° |
| 2026-04-20 22:07 | 35.28569 | -109.18630 | 32891 ft | 458 kts | 79° |
| 2026-04-20 22:07 | 35.29589 | -109.10933 | 32924 ft | 458 kts | 79° |
| 2026-04-20 22:08 | 35.30607 | -109.03238 | 33008 ft | 457 kts | 79° |
| 2026-04-20 22:08 | 35.31608 | -108.95565 | 33076 ft | 456 kts | 79° |
| 2026-04-20 22:09 | 35.32595 | -108.87951 | 33131 ft | 456 kts | 79° |
| 2026-04-20 22:09 | 35.33582 | -108.80285 | 33168 ft | 455 kts | 79° |
| 2026-04-20 22:10 | 35.34572 | -108.72629 | 32882 ft | 455 kts | 79° |
| 2026-04-20 22:10 | 35.35552 | -108.64975 | 32898 ft | 455 kts | 79° |
| 2026-04-20 22:11 | 35.36517 | -108.57374 | 32898 ft | 455 kts | 79° |
| 2026-04-20 22:11 | 35.37486 | -108.49718 | 32922 ft | 455 kts | 79° |
| 2026-04-20 22:12 | 35.38456 | -108.42060 | 32946 ft | 455 kts | 80° |
| 2026-04-20 22:12 | 35.39416 | -108.34396 | 32940 ft | 455 kts | 80° |
| 2026-04-20 22:13 | 35.40375 | -108.26726 | 32941 ft | 455 kts | 80° |
| 2026-04-20 22:13 | 35.41320 | -108.19101 | 32962 ft | 456 kts | 80° |
| 2026-04-20 22:14 | 35.42264 | -108.11423 | 33007 ft | 456 kts | 80° |
| 2026-04-20 22:14 | 35.43208 | -108.03739 | 33034 ft | 456 kts | 80° |
| 2026-04-20 22:15 | 35.44145 | -107.96053 | 33053 ft | 456 kts | 80° |
| 2026-04-20 22:15 | 35.45080 | -107.88413 | 33048 ft | 456 kts | 80° |
| 2026-04-20 22:16 | 35.46009 | -107.80724 | 32976 ft | 456 kts | 80° |
| 2026-04-20 22:16 | 35.46925 | -107.73025 | 33002 ft | 456 kts | 81° |
| 2026-04-20 22:17 | 35.47836 | -107.65330 | 32996 ft | 456 kts | 81° |
| 2026-04-20 22:17 | 35.48748 | -107.57685 | 33005 ft | 456 kts | 81° |
| 2026-04-20 22:18 | 35.49662 | -107.49989 | 33006 ft | 456 kts | 81° |
| 2026-04-20 22:18 | 35.50571 | -107.42289 | 33014 ft | 456 kts | 81° |
| 2026-04-20 22:19 | 35.51470 | -107.34586 | 33021 ft | 456 kts | 81° |
| 2026-04-20 22:19 | 35.52359 | -107.26928 | 33023 ft | 456 kts | 81° |
| 2026-04-20 22:20 | 35.53250 | -107.19222 | 33021 ft | 456 kts | 81° |
| 2026-04-20 22:20 | 35.54133 | -107.11513 | 33026 ft | 456 kts | 81° |
| 2026-04-20 22:21 | 35.55012 | -107.03801 | 33035 ft | 456 kts | 81° |
| 2026-04-20 22:21 | 35.55883 | -106.96092 | 33035 ft | 455 kts | 82° |
| 2026-04-20 22:22 | 35.56747 | -106.88442 | 33031 ft | 455 kts | 81° |
| 2026-04-20 22:22 | 35.57613 | -106.80743 | 33029 ft | 455 kts | 82° |
| 2026-04-20 22:23 | 35.58470 | -106.73046 | 33034 ft | 455 kts | 81° |
| 2026-04-20 22:23 | 35.59318 | -106.65347 | 33034 ft | 455 kts | 82° |
| 2026-04-20 22:24 | 35.60166 | -106.57647 | 33030 ft | 455 kts | 82° |
| 2026-04-20 22:24 | 35.60991 | -106.49995 | 33045 ft | 455 kts | 82° |
| 2026-04-20 22:25 | 35.61796 | -106.42283 | 33080 ft | 455 kts | 82° |
| 2026-04-20 22:25 | 35.62597 | -106.34571 | 33119 ft | 455 kts | 82° |
| 2026-04-20 22:26 | 35.63401 | -106.26913 | 33165 ft | 454 kts | 82° |
| 2026-04-20 22:26 | 35.64200 | -106.19214 | 33209 ft | 454 kts | 82° |
| 2026-04-20 22:27 | 35.65388 | -106.07656 | 33191 ft | 455 kts | 81° |
| 2026-04-20 22:27 | 35.66173 | -105.99934 | 33189 ft | 455 kts | 82° |
| 2026-04-20 22:28 | 35.66951 | -105.92257 | 33033 ft | 456 kts | 82° |
| 2026-04-20 22:28 | 35.67730 | -105.84512 | 33036 ft | 456 kts | 82° |
| 2026-04-20 22:29 | 35.68504 | -105.76760 | 33056 ft | 457 kts | 83° |
| 2026-04-20 22:29 | 35.69274 | -105.69011 | 33058 ft | 457 kts | 82° |
| 2026-04-20 22:30 | 35.70035 | -105.61305 | 33060 ft | 457 kts | 83° |
| 2026-04-20 22:30 | 35.70797 | -105.53547 | 33086 ft | 457 kts | 83° |
| 2026-04-20 22:31 | 35.71550 | -105.45778 | 33123 ft | 457 kts | 83° |
| 2026-04-20 22:31 | 35.72301 | -105.38014 | 33160 ft | 457 kts | 83° |
| 2026-04-20 22:32 | 35.73042 | -105.30300 | 33193 ft | 457 kts | 83° |
| 2026-04-20 22:32 | 35.73784 | -105.22536 | 33227 ft | 457 kts | 83° |
| 2026-04-20 22:33 | 35.74517 | -105.14777 | 33239 ft | 456 kts | 83° |
| 2026-04-20 22:33 | 35.75243 | -105.07020 | 33220 ft | 456 kts | 83° |
| 2026-04-20 22:34 | 35.75962 | -104.99321 | 33031 ft | 456 kts | 83° |
| 2026-04-20 22:34 | 35.76679 | -104.91579 | 33007 ft | 455 kts | 83° |
| 2026-04-20 22:35 | 35.77394 | -104.83814 | 32996 ft | 457 kts | 83° |
| 2026-04-20 22:35 | 35.78105 | -104.76027 | 32997 ft | 458 kts | 83° |
| 2026-04-20 22:36 | 35.78808 | -104.68279 | 32998 ft | 459 kts | 83° |
| 2026-04-20 22:36 | 35.79510 | -104.60470 | 32998 ft | 459 kts | 83° |
| 2026-04-20 22:37 | 35.80209 | -104.52648 | 33003 ft | 459 kts | 83° |
| 2026-04-20 22:37 | 35.80904 | -104.44823 | 33002 ft | 460 kts | 83° |
| 2026-04-20 22:38 | 35.81588 | -104.37041 | 33007 ft | 460 kts | 84° |
| 2026-04-20 22:38 | 35.82272 | -104.29202 | 33004 ft | 460 kts | 84° |
| 2026-04-20 22:39 | 35.82953 | -104.21360 | 33001 ft | 460 kts | 84° |
| 2026-04-20 22:39 | 35.83627 | -104.13510 | 32987 ft | 461 kts | 84° |
| 2026-04-20 22:40 | 35.84298 | -104.05639 | 32987 ft | 462 kts | 84° |
| 2026-04-20 22:40 | 35.84965 | -103.97804 | 32990 ft | 463 kts | 84° |
| 2026-04-20 22:41 | 35.85634 | -103.89906 | 33003 ft | 463 kts | 84° |
| 2026-04-20 22:41 | 35.86292 | -103.81998 | 33001 ft | 464 kts | 85° |
| 2026-04-20 22:42 | 35.86942 | -103.74069 | 32999 ft | 465 kts | 84° |
| 2026-04-20 22:42 | 35.87585 | -103.66179 | 33001 ft | 466 kts | 84° |
| 2026-04-20 22:43 | 35.88235 | -103.58223 | 33005 ft | 467 kts | 85° |
| 2026-04-20 22:43 | 35.88882 | -103.50261 | 33013 ft | 467 kts | 85° |
| 2026-04-20 22:44 | 35.89520 | -103.42285 | 33010 ft | 467 kts | 86° |
| 2026-04-20 22:44 | 35.90150 | -103.34355 | 33015 ft | 468 kts | 85° |
| 2026-04-20 22:45 | 35.90779 | -103.26365 | 33016 ft | 469 kts | 85° |
| 2026-04-20 22:45 | 35.91396 | -103.18363 | 33017 ft | 469 kts | 86° |
| 2026-04-20 22:46 | 35.92007 | -103.10418 | 33012 ft | 469 kts | 86° |
| 2026-04-20 22:46 | 35.92628 | -103.02412 | 33014 ft | 469 kts | 86° |
| 2026-04-20 22:47 | 35.93239 | -102.94406 | 33026 ft | 469 kts | 86° |
| 2026-04-20 22:47 | 35.93842 | -102.86395 | 33052 ft | 469 kts | 87° |
| 2026-04-20 22:48 | 35.94440 | -102.78385 | 33073 ft | 469 kts | 87° |
| 2026-04-20 22:48 | 35.95026 | -102.70424 | 33088 ft | 470 kts | 86° |
| 2026-04-20 22:49 | 35.95615 | -102.62386 | 33109 ft | 470 kts | 86° |
| 2026-04-20 22:49 | 35.96201 | -102.54340 | 33112 ft | 471 kts | 86° |
| 2026-04-20 22:50 | 35.96785 | -102.46278 | 33117 ft | 472 kts | 86° |
| 2026-04-20 22:50 | 35.97353 | -102.38263 | 33096 ft | 472 kts | 86° |
| 2026-04-20 22:51 | 35.97922 | -102.30175 | 33067 ft | 473 kts | 86° |
| 2026-04-20 22:51 | 35.98487 | -102.22084 | 33047 ft | 474 kts | 86° |
| 2026-04-20 22:52 | 35.99047 | -102.13975 | 33017 ft | 474 kts | 85° |
| 2026-04-20 22:52 | 35.99597 | -102.05914 | 33018 ft | 475 kts | 86° |
| 2026-04-20 22:53 | 36.00139 | -101.97788 | 33022 ft | 475 kts | 86° |
| 2026-04-20 22:53 | 36.00612 | -101.89662 | 33024 ft | 474 kts | 87° |
| 2026-04-20 22:54 | 36.01047 | -101.81535 | 33026 ft | 474 kts | 86° |
| 2026-04-20 22:54 | 36.01487 | -101.73467 | 33027 ft | 474 kts | 86° |
| 2026-04-20 22:55 | 36.01937 | -101.65338 | 33036 ft | 474 kts | 87° |
| 2026-04-20 22:55 | 36.02380 | -101.57237 | 33052 ft | 472 kts | 87° |
| 2026-04-20 22:56 | 36.02813 | -101.49165 | 33052 ft | 470 kts | 87° |
| 2026-04-20 22:56 | 36.03243 | -101.41157 | 33064 ft | 470 kts | 87° |
| 2026-04-20 22:57 | 36.03664 | -101.33111 | 33060 ft | 469 kts | 88° |
| 2026-04-20 22:57 | 36.04077 | -101.25067 | 33067 ft | 469 kts | 87° |
| 2026-04-20 22:58 | 36.04487 | -101.17029 | 33065 ft | 469 kts | 87° |
| 2026-04-20 22:58 | 36.04892 | -101.08990 | 33060 ft | 468 kts | 86° |
| 2026-04-20 22:59 | 36.05286 | -101.01016 | 33059 ft | 468 kts | 88° |
| 2026-04-20 22:59 | 36.05678 | -100.92986 | 33057 ft | 468 kts | 88° |
| 2026-04-20 23:00 | 36.06063 | -100.84945 | 33045 ft | 469 kts | 86° |
| 2026-04-20 23:00 | 36.06448 | -100.76891 | 33069 ft | 469 kts | 87° |
| 2026-04-20 23:01 | 36.06819 | -100.68895 | 33086 ft | 469 kts | 88° |
| 2026-04-20 23:01 | 36.07187 | -100.60848 | 33093 ft | 469 kts | 88° |
| 2026-04-20 23:02 | 36.07563 | -100.52802 | 33093 ft | 469 kts | 87° |
| 2026-04-20 23:02 | 36.07927 | -100.44754 | 33097 ft | 469 kts | 88° |
| 2026-04-20 23:03 | 36.08274 | -100.36755 | 33097 ft | 469 kts | 88° |
| 2026-04-20 23:03 | 36.08625 | -100.28695 | 33075 ft | 470 kts | 88° |
| 2026-04-20 23:04 | 36.08977 | -100.20630 | 33078 ft | 470 kts | 87° |
| 2026-04-20 23:04 | 36.09314 | -100.12562 | 33083 ft | 470 kts | 89° |
| 2026-04-20 23:05 | 36.09644 | -100.04541 | 33090 ft | 470 kts | 88° |
| 2026-04-20 23:05 | 36.09976 | -99.96467 | 33101 ft | 471 kts | 88° |
| 2026-04-20 23:06 | 36.10298 | -99.88384 | 33108 ft | 471 kts | 89° |
| 2026-04-20 23:06 | 36.10616 | -99.80296 | 33115 ft | 471 kts | 88° |
| 2026-04-20 23:07 | 36.10935 | -99.72272 | 33125 ft | 470 kts | 88° |
| 2026-04-20 23:07 | 36.11245 | -99.64208 | 33128 ft | 469 kts | 89° |
| 2026-04-20 23:08 | 36.11543 | -99.56073 | 33107 ft | 479 kts | 88° |
| 2026-04-20 23:08 | 36.11844 | -99.47787 | 33111 ft | 484 kts | 88° |
| 2026-04-20 23:09 | 36.12148 | -99.39555 | 33115 ft | 481 kts | 89° |
| 2026-04-20 23:09 | 36.12446 | -99.31318 | 33120 ft | 480 kts | 89° |
| 2026-04-20 23:10 | 36.12730 | -99.23087 | 33112 ft | 479 kts | 88° |
| 2026-04-20 23:10 | 36.13006 | -99.14840 | 33123 ft | 480 kts | 88° |
| 2026-04-20 23:11 | 36.13274 | -99.06656 | 33128 ft | 479 kts | 90° |
| 2026-04-20 23:11 | 36.13541 | -98.98417 | 33135 ft | 479 kts | 89° |
| 2026-04-20 23:12 | 36.13805 | -98.90188 | 33133 ft | 479 kts | 89° |
| 2026-04-20 23:12 | 36.14067 | -98.81955 | 33136 ft | 479 kts | 89° |
| 2026-04-20 23:13 | 36.14316 | -98.73777 | 33136 ft | 479 kts | 89° |
| 2026-04-20 23:13 | 36.14566 | -98.65547 | 33133 ft | 479 kts | 89° |
| 2026-04-20 23:14 | 36.14813 | -98.57319 | 33135 ft | 479 kts | 89° |
| 2026-04-20 23:14 | 36.15046 | -98.49094 | 33141 ft | 479 kts | 89° |
| 2026-04-20 23:15 | 36.15268 | -98.40867 | 33163 ft | 479 kts | 90° |
| 2026-04-20 23:15 | 36.15492 | -98.32687 | 33161 ft | 478 kts | 89° |
| 2026-04-20 23:16 | 36.15715 | -98.24467 | 33164 ft | 478 kts | 89° |
| 2026-04-20 23:16 | 36.15926 | -98.16251 | 33166 ft | 478 kts | 89° |
| 2026-04-20 23:17 | 36.16126 | -98.08036 | 33164 ft | 477 kts | 89° |
| 2026-04-20 23:17 | 36.16326 | -97.99877 | 33157 ft | 477 kts | 89° |
| 2026-04-20 23:18 | 36.16532 | -97.91665 | 33153 ft | 478 kts | 89° |
| 2026-04-20 23:18 | 36.16716 | -97.83456 | 33163 ft | 477 kts | 89° |
| 2026-04-20 23:19 | 36.16890 | -97.75241 | 33177 ft | 478 kts | 89° |
| 2026-04-20 23:19 | 36.17067 | -97.67029 | 33187 ft | 477 kts | 89° |
| 2026-04-20 23:20 | 36.17243 | -97.58878 | 33189 ft | 477 kts | 89° |
| 2026-04-20 23:20 | 36.17417 | -97.50662 | 33179 ft | 477 kts | 89° |
| 2026-04-20 23:21 | 36.17578 | -97.42458 | 33196 ft | 477 kts | 89° |
| 2026-04-20 23:21 | 36.17726 | -97.34252 | 33198 ft | 477 kts | 89° |
| 2026-04-20 23:22 | 36.17874 | -97.26099 | 33204 ft | 477 kts | 89° |
| 2026-04-20 23:22 | 36.18023 | -97.17895 | 33206 ft | 477 kts | 89° |
| 2026-04-20 23:23 | 36.18164 | -97.09690 | 33207 ft | 477 kts | 89° |
| 2026-04-20 23:23 | 36.18299 | -97.01483 | 33211 ft | 477 kts | 90° |
| 2026-04-20 23:24 | 36.18424 | -96.93331 | 33202 ft | 477 kts | 89° |
| 2026-04-20 23:24 | 36.18545 | -96.85117 | 33204 ft | 477 kts | 89° |
| 2026-04-20 23:25 | 36.18659 | -96.76911 | 33216 ft | 477 kts | 89° |
| 2026-04-20 23:25 | 36.18774 | -96.68709 | 33214 ft | 477 kts | 89° |
| 2026-04-20 23:26 | 36.18881 | -96.60559 | 33212 ft | 477 kts | 89° |
| 2026-04-20 23:26 | 36.18979 | -96.52353 | 33217 ft | 477 kts | 89° |
| 2026-04-20 23:27 | 36.19073 | -96.44148 | 33202 ft | 477 kts | 89° |
| 2026-04-20 23:27 | 36.19163 | -96.35940 | 33221 ft | 477 kts | 89° |
| 2026-04-20 23:28 | 36.19242 | -96.27787 | 33224 ft | 477 kts | 89° |
| 2026-04-20 23:28 | 36.19321 | -96.19574 | 33229 ft | 477 kts | 89° |
| 2026-04-20 23:29 | 36.19396 | -96.11357 | 33237 ft | 477 kts | 89° |
| 2026-04-20 23:29 | 36.19463 | -96.03128 | 33233 ft | 478 kts | 89° |
| 2026-04-20 23:30 | 36.19522 | -95.94888 | 33227 ft | 479 kts | 89° |
| 2026-04-20 23:30 | 36.19581 | -95.86634 | 33222 ft | 480 kts | 89° |
| 2026-04-20 23:31 | 36.19635 | -95.78434 | 33224 ft | 480 kts | 89° |
| 2026-04-20 23:31 | 36.19837 | -95.70184 | 33226 ft | 480 kts | 86° |
| 2026-04-20 23:32 | 36.20200 | -95.61929 | 33221 ft | 481 kts | 86° |
| 2026-04-20 23:32 | 36.20547 | -95.53651 | 33218 ft | 482 kts | 86° |
| 2026-04-20 23:33 | 36.20834 | -95.45415 | 33221 ft | 482 kts | 87° |
| 2026-04-20 23:33 | 36.21102 | -95.37119 | 33223 ft | 482 kts | 87° |
| 2026-04-20 23:34 | 36.21371 | -95.28816 | 33232 ft | 483 kts | 87° |
| 2026-04-20 23:34 | 36.21645 | -95.20513 | 33229 ft | 483 kts | 87° |
| 2026-04-20 23:35 | 36.22039 | -95.08054 | 33234 ft | 483 kts | 87° |
| 2026-04-20 23:36 | 36.22291 | -94.99796 | 33236 ft | 483 kts | 87° |
| 2026-04-20 23:36 | 36.22535 | -94.91482 | 33241 ft | 483 kts | 86° |
| 2026-04-20 23:37 | 36.22780 | -94.83158 | 33245 ft | 484 kts | 86° |
| 2026-04-20 23:37 | 36.23030 | -94.74835 | 33247 ft | 484 kts | 86° |
| 2026-04-20 23:38 | 36.23265 | -94.66503 | 33264 ft | 484 kts | 87° |
| 2026-04-20 23:38 | 36.23490 | -94.58224 | 33270 ft | 484 kts | 87° |
| 2026-04-20 23:39 | 36.23710 | -94.49880 | 33275 ft | 485 kts | 86° |
| 2026-04-20 23:39 | 36.23923 | -94.41528 | 33274 ft | 485 kts | 86° |
| 2026-04-20 23:40 | 36.24133 | -94.33169 | 33269 ft | 486 kts | 86° |
| 2026-04-20 23:40 | 36.24343 | -94.24810 | 33268 ft | 485 kts | 86° |
| 2026-04-20 23:41 | 36.24541 | -94.16506 | 33273 ft | 486 kts | 86° |
| 2026-04-20 23:41 | 36.24661 | -94.08135 | 33266 ft | 487 kts | 89° |
| 2026-04-20 23:42 | 36.24502 | -93.99735 | 33263 ft | 488 kts | 90° |
| 2026-04-20 23:42 | 36.24233 | -93.91330 | 33264 ft | 489 kts | 90° |
| 2026-04-20 23:43 | 36.24014 | -93.82915 | 33261 ft | 489 kts | 90° |
| 2026-04-20 23:43 | 36.23847 | -93.74488 | 33257 ft | 490 kts | 89° |
| 2026-04-20 23:44 | 36.23679 | -93.66106 | 33253 ft | 490 kts | 89° |
| 2026-04-20 23:44 | 36.23487 | -93.57663 | 33251 ft | 491 kts | 90° |
| 2026-04-20 23:45 | 36.23275 | -93.49219 | 33252 ft | 491 kts | 90° |
| 2026-04-20 23:45 | 36.23061 | -93.40770 | 33259 ft | 491 kts | 90° |
| 2026-04-20 23:46 | 36.22849 | -93.32326 | 33264 ft | 491 kts | 90° |
| 2026-04-20 23:46 | 36.22633 | -93.23935 | 33268 ft | 491 kts | 90° |
| 2026-04-20 23:47 | 36.22408 | -93.15488 | 33270 ft | 491 kts | 90° |
| 2026-04-20 23:47 | 36.22179 | -93.07043 | 33270 ft | 491 kts | 90° |
| 2026-04-20 23:48 | 36.21939 | -92.98593 | 33268 ft | 491 kts | 90° |
| 2026-04-20 23:48 | 36.21685 | -92.90136 | 33260 ft | 492 kts | 90° |